createdAt,value
2023-05-24T00:01:04.227Z,46.20
2023-05-24T00:03:52.344Z,46.20
2023-05-24T00:06:40.182Z,46.10
2023-05-24T00:09:29.206Z,46.20
2023-05-24T00:12:17.457Z,46.10
2023-05-24T00:15:05.849Z,46.20
2023-05-24T00:17:53.608Z,46.20
2023-05-24T00:20:41.863Z,46.10
2023-05-24T00:23:29.836Z,46.10
2023-05-24T00:26:19.080Z,46.20
2023-05-24T00:29:14.194Z,46.10
2023-05-24T00:32:02.289Z,46.10
2023-05-24T00:34:51.300Z,46.10
2023-05-24T00:37:40.175Z,46.10
2023-05-24T00:40:27.971Z,46.10
2023-05-24T00:43:17.039Z,46.70
2023-05-24T00:46:16.318Z,46.10
2023-05-24T00:49:04.340Z,46.10
2023-05-24T00:51:52.352Z,46.10
2023-05-24T00:54:41.212Z,46.10
2023-05-24T00:57:28.968Z,46.10
2023-05-24T01:00:18.716Z,46.10
2023-05-24T01:03:07.500Z,46.10
2023-05-24T01:05:55.562Z,46.00
2023-05-24T01:09:18.702Z,46.00
2023-05-24T01:12:09.321Z,46.00
2023-05-24T01:15:02.473Z,46.00
2023-05-24T01:17:55.731Z,46.00
2023-05-24T01:20:43.643Z,46.00
2023-05-24T01:23:34.513Z,46.10
2023-05-24T01:26:32.451Z,46.00
2023-05-24T01:29:21.388Z,46.70
2023-05-24T01:32:09.008Z,46.00
2023-05-24T01:34:56.809Z,46.00
2023-05-24T01:37:44.618Z,46.00
2023-05-24T01:40:32.426Z,46.00
2023-05-24T01:43:24.067Z,46.70
2023-05-24T01:46:17.848Z,46.00
2023-05-24T01:49:12.051Z,46.00
2023-05-24T01:52:01.086Z,46.10
2023-05-24T01:54:50.433Z,46.10
2023-05-24T01:57:38.342Z,46.10
2023-05-24T02:00:25.862Z,46.10
2023-05-24T02:03:16.542Z,46.10
2023-05-24T02:06:04.834Z,46.10
2023-05-24T02:08:53.539Z,46.10
2023-05-24T02:11:42.418Z,46.10
2023-05-24T02:14:30.250Z,46.10
2023-05-24T02:17:18.086Z,46.10
2023-05-24T02:20:08.454Z,46.10
2023-05-24T02:22:56.452Z,46.10
2023-05-24T02:25:46.827Z,46.10
2023-05-24T02:28:34.496Z,46.10
2023-05-24T02:31:22.729Z,46.20
2023-05-24T02:34:10.653Z,46.10
2023-05-24T02:36:59.714Z,46.10
2023-05-24T02:39:47.582Z,46.10
2023-05-24T02:42:35.210Z,46.10
2023-05-24T02:45:23.207Z,46.10
2023-05-24T02:48:11.024Z,46.10
2023-05-24T02:50:58.780Z,46.10
2023-05-24T02:53:47.755Z,46.20
2023-05-24T02:56:35.730Z,46.10
2023-05-24T02:59:23.681Z,46.20
2023-05-24T03:02:13.701Z,46.20
2023-05-24T03:05:01.837Z,46.20
2023-05-24T03:07:50.795Z,46.20
2023-05-24T03:10:40.872Z,46.20
2023-05-24T03:13:28.749Z,46.30
2023-05-24T03:16:17.730Z,46.20
2023-05-24T03:19:09.943Z,46.30
2023-05-24T03:21:58.704Z,46.30
2023-05-24T03:24:47.227Z,46.30
2023-05-24T03:27:36.559Z,46.30
2023-05-24T03:30:24.367Z,46.30
2023-05-24T03:33:16.798Z,46.30
2023-05-24T03:36:04.559Z,46.30
2023-05-24T03:38:52.406Z,46.30
2023-05-24T03:41:41.662Z,46.30
2023-05-24T03:44:33.252Z,46.30
2023-05-24T03:47:21.390Z,46.30
2023-05-24T03:50:10.004Z,46.30
2023-05-24T03:52:57.844Z,46.30
2023-05-24T03:55:45.378Z,46.30
2023-05-24T03:58:33.941Z,46.30
2023-05-24T04:01:33.284Z,46.40
2023-05-24T04:04:21.718Z,46.40
2023-05-24T04:07:11.772Z,46.40
2023-05-24T04:09:59.408Z,46.40
2023-05-24T04:12:47.518Z,46.40
2023-05-24T04:15:35.082Z,46.30
2023-05-24T04:18:24.353Z,47.00
2023-05-24T04:21:12.485Z,46.40
2023-05-24T04:24:01.532Z,46.40
2023-05-24T04:26:49.334Z,46.40
2023-05-24T04:29:36.811Z,46.40
2023-05-24T04:32:24.742Z,46.40
2023-05-24T04:35:15.481Z,46.50
2023-05-24T04:38:03.846Z,46.50
2023-05-24T04:40:51.381Z,46.50
2023-05-24T04:43:39.373Z,46.40
2023-05-24T04:46:27.279Z,46.50
2023-05-24T04:49:15.005Z,46.50
2023-05-24T04:52:04.135Z,46.40
2023-05-24T04:54:51.899Z,46.40
2023-05-24T04:57:39.767Z,46.50
2023-05-24T05:00:27.447Z,46.50
2023-05-24T05:03:15.359Z,46.50
2023-05-24T05:06:03.065Z,46.50
2023-05-24T05:08:53.288Z,46.50
2023-05-24T05:11:40.855Z,46.50
2023-05-24T05:14:29.082Z,46.50
2023-05-24T05:17:16.707Z,46.50
2023-05-24T05:20:04.904Z,46.60
2023-05-24T05:22:52.577Z,46.60
2023-05-24T05:25:41.718Z,46.70
2023-05-24T05:28:29.602Z,46.70
2023-05-24T05:31:17.361Z,46.70
2023-05-24T05:34:05.369Z,46.70
2023-05-24T05:36:53.368Z,46.90
2023-05-24T05:39:41.085Z,47.10
2023-05-24T05:42:30.299Z,47.00
2023-05-24T05:45:18.311Z,47.10
2023-05-24T05:48:06.294Z,47.10
2023-05-24T05:50:54.001Z,47.20
2023-05-24T05:53:41.777Z,47.30
2023-05-24T05:56:29.697Z,47.30
2023-05-24T05:59:19.544Z,47.30
2023-05-24T06:02:07.673Z,47.40
2023-05-24T06:04:55.308Z,47.40
2023-05-24T06:07:43.334Z,47.40
2023-05-24T06:10:31.284Z,47.50
2023-05-24T06:13:19.371Z,47.50
2023-05-24T06:16:09.840Z,47.40
2023-05-24T06:19:05.339Z,47.40
2023-05-24T06:21:54.788Z,47.30
2023-05-24T06:24:43.798Z,47.30
2023-05-24T06:27:31.479Z,47.30
2023-05-24T06:30:19.591Z,47.30
2023-05-24T06:33:08.884Z,47.30
2023-05-24T06:35:56.885Z,47.20
2023-05-24T06:38:44.723Z,47.20
2023-05-24T06:41:32.723Z,47.20
2023-05-24T06:44:24.580Z,47.20
2023-05-24T06:47:13.347Z,47.10
2023-05-24T06:50:04.107Z,47.10
2023-05-24T06:52:51.900Z,47.10
2023-05-24T06:55:39.900Z,47.10
2023-05-24T06:58:27.737Z,47.10
2023-05-24T07:01:16.571Z,47.10
2023-05-24T07:04:04.251Z,47.10
2023-05-24T07:06:53.739Z,47.00
2023-05-24T07:09:42.199Z,47.00
2023-05-24T07:12:30.101Z,47.00
2023-05-24T07:15:17.884Z,47.00
2023-05-24T07:18:05.864Z,46.90
2023-05-24T07:20:54.958Z,47.00
2023-05-24T07:23:43.956Z,46.90
2023-05-24T07:26:31.868Z,46.90
2023-05-24T07:29:19.752Z,46.90
2023-05-24T07:32:07.829Z,46.90
2023-05-24T07:34:55.573Z,46.90
2023-05-24T07:37:43.820Z,46.90
2023-05-24T07:40:32.789Z,46.90
2023-05-24T07:43:20.622Z,46.80
2023-05-24T07:46:10.346Z,46.80
2023-05-24T07:48:58.259Z,46.80
2023-05-24T07:51:46.491Z,46.80
2023-05-24T07:54:34.037Z,46.80
2023-05-24T07:57:23.755Z,46.70
2023-05-24T08:00:14.852Z,46.70
2023-05-24T08:03:03.188Z,46.70
2023-05-24T08:05:51.617Z,46.70
2023-05-24T08:08:40.210Z,46.70
2023-05-24T08:11:27.949Z,46.70
2023-05-24T08:14:17.296Z,46.70
2023-05-24T08:17:05.391Z,46.70
2023-05-24T08:19:53.253Z,46.70
2023-05-24T08:22:41.268Z,46.60
2023-05-24T08:25:29.035Z,46.60
2023-05-24T08:28:18.186Z,46.60
2023-05-24T08:31:07.565Z,46.60
2023-05-24T08:33:57.389Z,46.60
2023-05-24T08:36:45.922Z,46.60
2023-05-24T08:39:33.596Z,46.60
2023-05-24T08:42:21.772Z,46.70
2023-05-24T08:45:12.369Z,46.70
2023-05-24T08:48:01.676Z,46.80
2023-05-24T08:50:49.602Z,46.80
2023-05-24T08:53:37.500Z,46.80
2023-05-24T08:56:25.544Z,46.90
2023-05-24T08:59:13.862Z,46.90
2023-05-24T09:02:01.735Z,46.90
2023-05-24T09:04:51.793Z,46.80
2023-05-24T09:07:39.754Z,46.80
2023-05-24T09:10:29.733Z,46.80
2023-05-24T09:13:19.387Z,46.80
2023-05-24T09:16:07.775Z,46.70
2023-05-24T09:18:55.553Z,46.70
2023-05-24T09:21:45.048Z,46.60
2023-05-24T09:24:32.963Z,46.60
2023-05-24T09:27:22.177Z,46.60
2023-05-24T09:30:12.730Z,46.60
2023-05-24T09:33:01.508Z,46.60
2023-05-24T09:35:49.393Z,46.60
2023-05-24T09:38:38.472Z,46.50
2023-05-24T09:41:26.393Z,46.50
2023-05-24T09:44:15.299Z,46.50
2023-05-24T09:47:05.217Z,46.50
2023-05-24T09:49:53.508Z,46.50
2023-05-24T09:52:41.924Z,47.00
2023-05-24T09:55:31.006Z,46.40
2023-05-24T09:58:18.914Z,46.40
2023-05-24T10:01:08.659Z,46.40
2023-05-24T10:03:57.650Z,46.40
2023-05-24T10:06:45.826Z,46.30
2023-05-24T10:09:34.983Z,46.90
2023-05-24T10:12:25.662Z,46.20
2023-05-24T10:15:13.541Z,46.20
2023-05-24T10:18:02.505Z,46.20
2023-05-24T10:20:50.527Z,46.20
2023-05-24T10:23:39.694Z,46.20
2023-05-24T10:26:27.613Z,46.10
2023-05-24T10:29:21.037Z,46.10
2023-05-24T10:32:08.885Z,46.20
2023-05-24T10:34:56.542Z,46.10
2023-05-24T10:37:44.516Z,46.10
2023-05-24T10:40:32.213Z,46.10
2023-05-24T10:43:19.805Z,46.10
2023-05-24T10:46:10.029Z,46.10
2023-05-24T10:49:01.134Z,46.10
2023-05-24T10:51:48.739Z,46.10
2023-05-24T10:54:39.969Z,46.00
2023-05-24T10:57:30.607Z,46.10
2023-05-24T11:03:24.584Z,46.10
2023-05-24T11:06:12.495Z,46.00
2023-05-24T11:09:01.456Z,46.10
2023-05-24T11:11:50.133Z,46.00
2023-05-24T11:14:41.244Z,46.00
2023-05-24T11:17:29.366Z,46.10
2023-05-24T11:20:18.527Z,46.10
2023-05-24T11:23:07.208Z,46.10
2023-05-24T11:25:55.082Z,46.10
2023-05-24T11:28:43.538Z,46.10
2023-05-24T11:31:31.599Z,46.10
2023-05-24T11:34:19.638Z,46.10
2023-05-24T11:37:09.372Z,46.20
2023-05-24T11:39:57.188Z,46.30
2023-05-24T11:42:45.059Z,46.30
2023-05-24T11:45:32.800Z,46.30
2023-05-24T11:48:20.919Z,46.30
2023-05-24T11:51:08.607Z,46.40
2023-05-24T11:53:58.481Z,46.50
2023-05-24T11:56:46.148Z,46.60
2023-05-24T11:59:37.705Z,46.60
2023-05-24T12:02:25.625Z,46.60
2023-05-24T12:05:14.421Z,46.70
2023-05-24T12:08:04.917Z,46.70
2023-05-24T12:10:54.619Z,46.80
2023-05-24T12:13:42.189Z,46.80
2023-05-24T12:16:32.246Z,46.90
2023-05-24T12:19:32.195Z,46.90
2023-05-24T12:22:27.145Z,47.00
2023-05-24T12:25:15.617Z,47.00
2023-05-24T12:28:05.783Z,47.00
2023-05-24T12:30:53.685Z,47.00
2023-05-24T12:33:41.556Z,47.00
2023-05-24T12:36:29.851Z,46.90
2023-05-24T12:39:20.854Z,46.90
2023-05-24T12:42:08.931Z,46.80
2023-05-24T12:44:58.351Z,46.80
2023-05-24T12:47:46.057Z,46.80
2023-05-24T12:50:34.849Z,46.80
2023-05-24T12:53:24.626Z,46.80
2023-05-24T12:56:12.620Z,46.80
2023-05-24T12:59:00.569Z,46.70
2023-05-24T13:01:51.984Z,46.70
2023-05-24T13:04:39.773Z,46.70
2023-05-24T13:07:27.595Z,46.70
2023-05-24T13:10:15.414Z,46.70
2023-05-24T13:13:03.190Z,46.70
2023-05-24T13:15:50.793Z,46.70
2023-05-24T13:18:40.008Z,46.70
2023-05-24T13:21:27.937Z,46.70
2023-05-24T13:24:16.564Z,46.70
2023-05-24T13:27:04.924Z,46.70
2023-05-24T13:30:01.030Z,46.70
2023-05-24T13:32:49.071Z,46.80
2023-05-24T13:35:38.339Z,46.80
2023-05-24T13:38:26.390Z,46.80
2023-05-24T13:41:14.512Z,46.90
2023-05-24T13:44:02.287Z,46.90
2023-05-24T13:46:50.275Z,46.90
2023-05-24T13:49:38.215Z,46.90
2023-05-24T13:52:27.417Z,46.90
2023-05-24T13:55:14.980Z,47.00
2023-05-24T13:58:04.820Z,47.00
2023-05-24T14:00:52.749Z,47.00
2023-05-24T14:03:41.138Z,47.50
2023-05-24T14:06:29.009Z,47.50
2023-05-24T14:09:18.138Z,47.30
2023-05-24T14:12:07.891Z,47.80
2023-05-24T14:14:59.647Z,47.80
2023-05-24T14:17:47.627Z,47.40
2023-05-24T14:20:36.835Z,47.60
2023-05-24T14:23:24.943Z,47.60
2023-05-24T14:26:14.320Z,47.60
2023-05-24T14:29:02.647Z,47.70
2023-05-24T14:31:51.240Z,47.80
2023-05-24T14:34:39.024Z,48.60
2023-05-24T14:37:26.860Z,48.10
2023-05-24T14:40:17.590Z,48.50
2023-05-24T14:43:10.216Z,48.90
2023-05-24T14:45:58.254Z,49.20
2023-05-24T14:48:46.239Z,49.50
2023-05-24T14:51:34.522Z,49.60
2023-05-24T14:54:22.420Z,49.80
2023-05-24T14:57:10.251Z,50.00
2023-05-24T14:59:59.544Z,50.30
2023-05-24T15:02:47.877Z,50.40
2023-05-24T15:05:35.588Z,50.50
2023-05-24T15:08:23.447Z,50.70
2023-05-24T15:11:11.410Z,51.00
2023-05-24T15:14:00.046Z,51.10
2023-05-24T15:16:49.556Z,50.90
2023-05-24T15:19:37.437Z,50.70
2023-05-24T15:22:25.245Z,50.60
2023-05-24T15:25:13.162Z,50.50
2023-05-24T15:28:01.265Z,50.50
2023-05-24T15:30:49.256Z,50.30
2023-05-24T15:33:38.464Z,50.20
2023-05-24T15:36:26.421Z,50.30
2023-05-24T15:39:14.246Z,50.20
2023-05-24T15:42:02.639Z,50.10
2023-05-24T15:44:50.495Z,50.00
2023-05-24T15:47:40.326Z,49.90
2023-05-24T15:50:47.581Z,49.90
2023-05-24T15:53:37.206Z,49.80
2023-05-24T15:56:25.201Z,49.70
2023-05-24T15:59:13.096Z,49.60
2023-05-24T16:02:00.904Z,49.50
2023-05-24T16:04:48.734Z,49.50
2023-05-24T16:07:38.010Z,49.30
2023-05-24T16:10:25.910Z,49.90
2023-05-24T16:13:13.672Z,49.30
2023-05-24T16:16:01.703Z,49.20
2023-05-24T16:18:49.491Z,49.10
2023-05-24T16:21:37.366Z,49.10
2023-05-24T16:24:26.959Z,49.20
2023-05-24T16:27:14.715Z,49.20
2023-05-24T16:30:02.354Z,49.40
2023-05-24T16:32:50.496Z,49.40
2023-05-24T16:35:38.330Z,49.50
2023-05-24T16:38:26.482Z,49.30
2023-05-24T16:41:15.578Z,49.40
2023-05-24T16:44:03.428Z,49.30
2023-05-24T16:46:51.345Z,49.50
2023-05-24T16:49:39.150Z,49.90
2023-05-24T16:52:27.049Z,50.10
2023-05-24T16:55:15.941Z,50.30
2023-05-24T16:58:04.835Z,50.40
2023-05-24T17:00:54.240Z,50.40
2023-05-24T17:03:42.977Z,50.50
2023-05-24T17:06:31.151Z,50.60
2023-05-24T17:09:18.724Z,50.60
2023-05-24T17:12:07.256Z,50.60
2023-05-24T17:14:56.168Z,50.70
2023-05-24T17:17:44.177Z,50.90
2023-05-24T17:20:32.067Z,50.90
2023-05-24T17:23:21.049Z,51.10
2023-05-24T17:26:09.513Z,51.20
2023-05-24T17:28:57.336Z,51.20
2023-05-24T17:31:47.018Z,51.20
2023-05-24T17:34:34.839Z,51.40
2023-05-24T17:37:22.533Z,51.50
2023-05-24T17:40:11.347Z,51.50
2023-05-24T17:42:59.285Z,51.40
2023-05-24T17:45:47.372Z,51.50
2023-05-24T17:48:37.175Z,51.50
2023-05-24T17:51:25.055Z,51.40
2023-05-24T17:54:12.623Z,51.50
2023-05-24T17:57:01.720Z,51.50
2023-05-24T17:59:49.631Z,51.70
2023-05-24T18:02:37.559Z,51.70
2023-05-24T18:05:26.972Z,51.70
2023-05-24T18:08:14.799Z,51.70
2023-05-24T18:11:07.894Z,51.80
2023-05-24T18:13:55.599Z,51.80
2023-05-24T18:16:44.061Z,51.70
2023-05-24T18:19:31.849Z,51.60
2023-05-24T18:22:21.162Z,51.60
2023-05-24T18:25:09.891Z,51.60
2023-05-24T18:27:58.882Z,51.50
2023-05-24T18:30:46.486Z,51.40
2023-05-24T18:33:34.455Z,51.40
2023-05-24T18:36:22.212Z,51.40
2023-05-24T18:39:11.337Z,51.50
2023-05-24T18:41:59.127Z,51.60
2023-05-24T18:44:47.012Z,51.70
2023-05-24T18:47:35.005Z,51.60
2023-05-24T18:50:23.201Z,51.60
2023-05-24T18:53:11.930Z,51.50
2023-05-24T18:56:00.978Z,51.50
2023-05-24T18:58:51.140Z,51.60
2023-05-24T19:01:38.703Z,51.80
2023-05-24T19:04:26.512Z,51.80
2023-05-24T19:07:14.438Z,52.00
2023-05-24T19:10:02.403Z,52.10
2023-05-24T19:12:52.318Z,51.90
2023-05-24T19:15:40.184Z,52.10
2023-05-24T19:18:28.286Z,52.30
2023-05-24T19:21:16.206Z,52.10
2023-05-24T19:24:04.061Z,52.00
2023-05-24T19:26:51.959Z,52.00
2023-05-24T19:29:41.187Z,51.80
2023-05-24T19:32:29.201Z,51.90
2023-05-24T19:35:17.242Z,51.70
2023-05-24T19:38:05.352Z,51.70
2023-05-24T19:40:52.812Z,51.70
2023-05-24T19:43:40.668Z,51.60
2023-05-24T19:46:30.013Z,51.50
2023-05-24T19:49:17.841Z,51.50
2023-05-24T19:52:05.760Z,51.50
2023-05-24T19:54:53.522Z,51.50
2023-05-24T19:57:41.290Z,51.50
2023-05-24T20:00:29.348Z,51.40
2023-05-24T20:03:18.826Z,51.40
2023-05-24T20:06:06.860Z,51.40
2023-05-24T20:08:55.673Z,51.40
2023-05-24T20:11:43.296Z,51.40
2023-05-24T20:14:31.703Z,51.30
2023-05-24T20:17:19.816Z,51.40
2023-05-24T20:20:10.241Z,51.30
2023-05-24T20:22:57.873Z,51.30
2023-05-24T20:25:46.000Z,51.30
2023-05-24T20:28:34.012Z,51.20
2023-05-24T20:31:22.039Z,51.20
2023-05-24T20:34:10.040Z,51.20
2023-05-24T20:36:59.320Z,51.20
2023-05-24T20:39:47.166Z,51.20
2023-05-24T20:42:35.592Z,51.20
2023-05-24T20:45:23.313Z,51.20
2023-05-24T20:48:11.265Z,51.30
2023-05-24T20:50:59.292Z,51.20
2023-05-24T20:53:51.637Z,51.10
2023-05-24T20:56:39.449Z,51.20
2023-05-24T20:59:27.279Z,51.10
2023-05-24T21:02:15.252Z,51.10
2023-05-24T21:05:03.304Z,51.30
2023-05-24T21:07:51.308Z,51.30
2023-05-24T21:10:40.482Z,51.20
2023-05-24T21:13:28.324Z,51.20
2023-05-24T21:16:16.181Z,51.10
2023-05-24T21:19:04.213Z,51.10
2023-05-24T21:21:52.094Z,51.10
2023-05-24T21:24:40.044Z,51.00
2023-05-24T21:27:29.231Z,51.00
2023-05-24T21:30:16.925Z,51.00
2023-05-24T21:33:04.898Z,51.00
2023-05-24T21:35:52.563Z,51.00
2023-05-24T21:38:40.348Z,51.00
2023-05-24T21:41:28.496Z,50.90
2023-05-24T21:44:17.476Z,50.90
2023-05-24T21:47:06.085Z,50.90
2023-05-24T21:49:54.808Z,50.90
2023-05-24T21:52:42.822Z,50.90
2023-05-24T21:55:30.851Z,50.80
2023-05-24T21:58:18.674Z,50.80
2023-05-24T22:01:08.601Z,50.80
2023-05-24T22:03:56.498Z,50.80
2023-05-24T22:06:45.940Z,50.70
2023-05-24T22:09:33.995Z,50.70
2023-05-24T22:12:21.851Z,50.60
2023-05-24T22:15:10.825Z,50.70
2023-05-24T22:18:02.259Z,50.60
2023-05-24T22:20:51.166Z,50.60
2023-05-24T22:23:39.043Z,50.60
2023-05-24T22:26:27.926Z,50.50
2023-05-24T22:29:15.989Z,51.10
2023-05-24T22:32:04.037Z,50.50
2023-05-24T22:34:53.431Z,50.40
2023-05-24T22:37:41.239Z,51.00
2023-05-24T22:40:28.850Z,50.30
2023-05-24T22:43:16.594Z,50.30
2023-05-24T22:46:04.533Z,50.30
2023-05-24T22:48:53.166Z,50.30
2023-05-24T22:51:44.109Z,50.20
2023-05-24T22:54:31.812Z,50.20
2023-05-24T22:57:21.615Z,50.20
2023-05-24T23:00:11.726Z,50.10
2023-05-24T23:02:59.395Z,50.20
2023-05-24T23:05:47.439Z,50.10
2023-05-24T23:08:37.483Z,50.10
2023-05-24T23:11:26.455Z,50.10
2023-05-24T23:14:14.174Z,50.10
2023-05-24T23:17:02.736Z,50.10
2023-05-24T23:19:51.132Z,50.10
2023-05-24T23:22:39.084Z,50.10
2023-05-24T23:25:28.042Z,50.10
2023-05-24T23:28:15.967Z,50.10
2023-05-24T23:31:03.820Z,50.10
2023-05-24T23:33:52.178Z,50.00
2023-05-24T23:36:41.028Z,50.00
2023-05-24T23:39:28.576Z,50.00
2023-05-24T23:42:17.906Z,49.90
2023-05-24T23:45:06.931Z,50.00
2023-05-24T23:47:54.734Z,49.90
2023-05-24T23:50:53.442Z,50.00
2023-05-24T23:53:41.787Z,49.90
2023-05-24T23:56:29.712Z,49.90
2023-05-24T23:59:18.996Z,49.80
